Time;durP1;ratioP1;P1;durP2;ratioP2;P2;SDS_P1;SDS_P2;PMS_P1;PMS_P2;Temp;Humidity;BMP_temperature;BMP_pressure;BME280_temperature;BME280_humidity;BME280_pressure;Samples;Min_cycle;Max_cycle;Signal;HPM_P1;HPM_P2
2023/02/10 00:01:52;;;;;;;;;;;;;;;15.72;59.94;103338.28;7401936;19;2197;-38
2023/02/10 00:04:20;;;;;;;;;;;;;;;15.70;60.10;103332.13;7399530;19;2133;-38
2023/02/10 00:06:50;;;;;;;;;;;;;;;15.66;59.97;103326.00;7400640;19;2139;-39
2023/02/10 00:09:21;;;;;;;;;;;;;;;15.66;59.97;103335.81;7400859;19;2092;-39
2023/02/10 00:12:04;;;;;;;;;;;;;;;15.61;60.14;103329.75;7402656;19;1725;-38
2023/02/10 00:14:33;;;;;;;;;;;;;;;15.61;60.02;103337.75;7402239;19;1863;-38
2023/02/10 00:17:04;;;;;;;;;;;;;;;15.58;59.76;103327.16;7401398;19;2131;-38
2023/02/10 00:19:35;;;;;;;;;;;;;;;15.55;59.87;103332.63;7399583;19;1851;-39
2023/02/10 00:22:05;;;;;;;;;;;;;;;15.54;60.20;103330.88;7402042;19;1957;-38
2023/02/10 00:24:33;;;;;;;;;;;;;;;15.48;59.84;103321.28;7401136;19;1830;-38
2023/02/10 00:27:02;;;;;;;;;;;;;;;15.49;60.18;103328.34;7401815;19;1861;-38
2023/02/10 00:29:36;;;;;;;;;;;;;;;15.46;60.06;103328.47;7401309;19;2356;-38
2023/02/10 00:32:10;;;;;;;;;;;;;;;15.44;60.28;103325.84;7400978;19;2465;-38
2023/02/10 00:34:39;;;;;;;;;;;;;;;15.45;59.96;103332.03;7400340;19;2113;-38
2023/02/10 00:37:07;;;;;;;;;;;;;;;15.86;59.10;103328.03;7401345;19;2069;-38
2023/02/10 00:39:41;;;;;;;;;;;;;;;16.12;58.11;103322.75;7396389;19;2087;-39
2023/02/10 00:42:10;;;;;;;;;;;;;;;16.65;56.98;103315.44;7401570;19;1827;-38
2023/02/10 00:44:38;;;;;;;;;;;;;;;17.22;55.22;103312.38;7401009;19;2056;-38
2023/02/10 00:47:10;;;;;;;;;;;;;;;17.58;54.26;103327.84;7400200;19;2023;-39
2023/02/10 00:49:39;;;;;;;;;;;;;;;17.83;53.57;103300.94;7400847;19;1989;-38
2023/02/10 00:52:07;;;;;;;;;;;;;;;18.04;53.20;103302.69;7399740;19;2027;-38
2023/02/10 00:54:38;;;;;;;;;;;;;;;17.30;54.79;103305.78;7400732;19;1774;-39
2023/02/10 00:57:06;;;;;;;;;;;;;;;16.68;56.06;103315.31;7400841;19;2117;-38
2023/02/10 00:59:35;;;;;;;;;;;;;;;16.19;57.50;103303.75;7398967;19;2153;-38
2023/02/10 01:02:05;;;;;;;;;;;;;;;15.83;58.80;103301.44;7399973;19;2173;-38
2023/02/10 01:04:38;;;;;;;;;;;;;;;15.75;59.22;103303.50;7399133;19;2159;-38
2023/02/10 01:07:11;;;;;;;;;;;;;;;15.68;58.93;103270.81;7400166;19;2081;-38
2023/02/10 01:09:42;;;;;;;;;;;;;;;15.73;58.81;103302.69;7399017;19;1735;-38
2023/02/10 01:12:16;;;;;;;;;;;;;;;15.69;59.17;103287.69;7400373;19;1982;-38
2023/02/10 01:14:46;;;;;;;;;;;;;;;15.68;59.24;103291.28;7399277;19;2014;-39
2023/02/10 01:17:14;;;;;;;;;;;;;;;15.66;59.16;103298.47;7400370;19;2022;-38
2023/02/10 01:19:51;;;;;;;;;;;;;;;15.66;58.74;103303.81;7398694;19;1925;-38
2023/02/10 01:22:19;;;;;;;;;;;;;;;15.65;59.35;103289.56;7400141;19;1876;-38
2023/02/10 01:24:48;;;;;;;;;;;;;;;15.60;59.57;103282.69;7399512;19;1838;-38
2023/02/10 01:27:20;;;;;;;;;;;;;;;16.00;58.20;103290.19;7398958;19;1885;-38
2023/02/10 01:29:48;;;;;;;;;;;;;;;16.50;56.62;103287.47;7399068;19;2173;-38
2023/02/10 01:32:20;;;;;;;;;;;;;;;17.19;55.01;103278.63;7399037;19;2182;-39
2023/02/10 01:34:53;;;;;;;;;;;;;;;17.64;53.72;103266.06;7399237;19;2035;-38
2023/02/10 01:37:26;;;;;;;;;;;;;;;17.96;52.91;103277.19;7398927;19;2120;-38
2023/02/10 01:39:55;;;;;;;;;;;;;;;17.98;53.21;103272.66;7397120;19;2201;-38
2023/02/10 01:42:24;;;;;;;;;;;;;;;18.09;52.79;103260.53;7399597;19;2020;-38
2023/02/10 01:45:14;;;;;;;;;;;;;;;18.19;52.29;103268.16;7399388;19;2002;-39
2023/02/10 01:47:43;;;;;;;;;;;;;;;18.20;52.39;103281.47;7397416;19;2257;-38
2023/02/10 01:50:20;;;;;;;;;;;;;;;18.32;51.97;103279.16;7403144;19;1998;-39
2023/02/10 01:52:57;;;;;;;;;;;;;;;18.33;52.06;103279.13;7406461;19;1771;-39
2023/02/10 01:55:28;;;;;;;;;;;;;;;18.37;52.27;103263.78;7407364;19;1840;-39
2023/02/10 01:57:57;;;;;;;;;;;;;;;18.41;51.97;103268.91;7405464;19;2066;-38
2023/02/10 02:00:26;;;;;;;;;;;;;;;18.48;51.56;103253.41;7405919;19;2062;-38
2023/02/10 02:02:59;;;;;;;;;;;;;;;18.52;51.51;103254.13;7405789;19;2015;-38
2023/02/10 02:05:34;;;;;;;;;;;;;;;18.54;51.33;103268.34;7406175;19;1880;-39
2023/02/10 02:08:07;;;;;;;;;;;;;;;18.57;51.28;103268.22;7405538;19;2162;-39
2023/02/10 02:10:54;;;;;;;;;;;;;;;18.57;51.25;103263.72;7405326;19;2139;-39
2023/02/10 02:13:30;;;;;;;;;;;;;;;18.68;51.33;103266.75;7405040;19;2262;-39
2023/02/10 02:16:06;;;;;;;;;;;;;;;18.56;51.29;103253.94;7405061;19;2081;-38
2023/02/10 02:18:42;;;;;;;;;;;;;;;18.44;51.58;103273.25;7405169;19;2030;-39
2023/02/10 02:21:25;;;;;;;;;;;;;;;18.15;52.15;103256.72;7405759;19;2028;-38
2023/02/10 02:24:07;;;;;;;;;;;;;;;17.77;52.87;103258.38;7405385;19;2117;-38
2023/02/10 02:26:46;;;;;;;;;;;;;;;17.54;53.86;103264.72;7405337;19;1765;-38
2023/02/10 02:29:38;;;;;;;;;;;;;;;17.48;53.97;103261.34;7405725;19;2063;-39
2023/02/10 02:32:12;;;;;;;;;;;;;;;17.51;53.53;103260.38;7400710;19;1704;-39
2023/02/10 02:34:50;;;;;;;;;;;;;;;17.41;53.99;103265.22;7404378;19;2017;-39
2023/02/10 02:37:20;;;;;;;;;;;;;;;17.37;53.79;103236.88;7404332;19;1852;-39
2023/02/10 02:39:51;;;;;;;;;;;;;;;17.33;53.81;103251.31;7403153;19;2047;-39
2023/02/10 02:42:24;;;;;;;;;;;;;;;17.35;54.00;103244.09;7404052;19;2111;-39
2023/02/10 02:44:57;;;;;;;;;;;;;;;17.33;53.89;103256.66;7404798;19;1932;-38
2023/02/10 02:47:38;;;;;;;;;;;;;;;17.32;53.93;103252.22;7403316;19;1810;-39
2023/02/10 02:50:14;;;;;;;;;;;;;;;17.70;53.07;103263.13;7404016;19;1766;-39
2023/02/10 02:52:48;;;;;;;;;;;;;;;18.18;51.71;103253.88;7403369;19;1817;-39
2023/02/10 02:55:21;;;;;;;;;;;;;;;18.73;50.99;103252.28;7403807;19;2131;-39
2023/02/10 02:57:53;;;;;;;;;;;;;;;18.96;50.35;103227.94;7403149;19;2105;-38
2023/02/10 03:00:24;;;;;;;;;;;;;;;19.18;49.51;103238.47;7400057;19;1952;-38
2023/02/10 03:02:55;;;;;;;;;;;;;;;19.44;49.11;103229.09;7402458;19;1785;-38
2023/02/10 03:05:34;;;;;;;;;;;;;;;19.23;49.80;103220.31;7404477;19;1880;-39
2023/02/10 03:08:04;;;;;;;;;;;;;;;19.13;50.11;103219.03;7403778;19;2030;-39
2023/02/10 03:10:34;;;;;;;;;;;;;;;19.26;49.64;103249.69;7403303;19;2018;-39
2023/02/10 03:13:05;;;;;;;;;;;;;;;19.37;49.23;103222.28;7402650;19;1808;-39
2023/02/10 03:15:33;;;;;;;;;;;;;;;19.15;49.89;103233.25;7402757;19;2280;-39
2023/02/10 03:18:04;;;;;;;;;;;;;;;19.13;49.96;103232.44;7403640;19;2057;-39
2023/02/10 03:20:34;;;;;;;;;;;;;;;19.23;49.71;103220.31;7400746;19;1973;-39
2023/02/10 03:23:05;;;;;;;;;;;;;;;19.32;49.63;103232.41;7402390;19;1748;-39
2023/02/10 03:25:34;;;;;;;;;;;;;;;19.34;49.41;103232.31;7402664;19;1819;-39
2023/02/10 03:28:05;;;;;;;;;;;;;;;19.35;49.49;103213.47;7403052;19;2048;-39
2023/02/10 03:30:34;;;;;;;;;;;;;;;19.47;49.22;103215.50;7403067;19;1999;-39
2023/02/10 03:33:10;;;;;;;;;;;;;;;19.52;49.04;103241.25;7402771;19;1995;-39
2023/02/10 03:35:42;;;;;;;;;;;;;;;19.51;49.16;103223.41;7404366;19;2032;-39
2023/02/10 03:38:11;;;;;;;;;;;;;;;19.41;49.36;103210.47;7403058;19;2195;-39
2023/02/10 03:40:39;;;;;;;;;;;;;;;19.29;49.81;103200.34;7401225;19;1966;-39
2023/02/10 03:43:08;;;;;;;;;;;;;;;19.13;49.97;103207.44;7402269;19;2110;-39
2023/02/10 03:45:36;;;;;;;;;;;;;;;19.17;49.84;103206.34;7402718;19;1887;-39
2023/02/10 03:48:11;;;;;;;;;;;;;;;19.27;49.56;103205.78;7402496;19;1998;-39
2023/02/10 03:50:43;;;;;;;;;;;;;;;19.08;49.77;103219.28;7402739;19;1963;-39
2023/02/10 03:53:11;;;;;;;;;;;;;;;19.16;49.95;103218.00;7401574;19;1888;-39
2023/02/10 03:55:43;;;;;;;;;;;;;;;19.27;49.65;103216.53;7401725;19;1843;-39
2023/02/10 03:58:14;;;;;;;;;;;;;;;19.37;49.58;103199.97;7401801;19;1736;-39
2023/02/10 04:00:45;;;;;;;;;;;;;;;19.23;49.67;103206.03;7398911;19;2117;-39
2023/02/10 04:03:16;;;;;;;;;;;;;;;19.04;50.32;103196.25;7400029;19;2129;-39
2023/02/10 04:05:45;;;;;;;;;;;;;;;18.90;50.46;103195.19;7403565;19;955;-39
2023/02/10 04:08:13;;;;;;;;;;;;;;;18.81;50.59;103200.03;7401771;19;2070;-39
2023/02/10 04:10:42;;;;;;;;;;;;;;;18.53;51.32;103208.53;7401226;19;1796;-39
2023/02/10 04:13:10;;;;;;;;;;;;;;;18.37;51.46;103203.03;7401973;19;2349;-39
2023/02/10 04:15:43;;;;;;;;;;;;;;;18.24;51.61;103208.09;7400859;19;2102;-39
2023/02/10 04:18:11;;;;;;;;;;;;;;;18.39;51.39;103195.78;7400791;19;2021;-38
2023/02/10 04:20:44;;;;;;;;;;;;;;;18.61;50.91;103202.81;7400057;19;2084;-39
2023/02/10 04:23:15;;;;;;;;;;;;;;;18.54;50.73;103193.31;7399487;19;1816;-39
2023/02/10 04:25:49;;;;;;;;;;;;;;;17.93;52.25;103202.41;7401631;19;1939;-39
2023/02/10 04:28:17;;;;;;;;;;;;;;;17.40;53.60;103209.97;7401865;19;2046;-39
2023/02/10 04:30:45;;;;;;;;;;;;;;;17.01;54.42;103212.50;7401382;19;1790;-39
2023/02/10 04:33:17;;;;;;;;;;;;;;;16.86;54.68;103203.31;7401420;19;1667;-39
2023/02/10 04:35:49;;;;;;;;;;;;;;;17.19;54.12;103210.88;7402048;19;2070;-38
2023/02/10 04:38:18;;;;;;;;;;;;;;;17.75;52.73;103196.03;7402634;19;1544;-39
2023/02/10 04:40:50;;;;;;;;;;;;;;;18.15;51.83;103191.56;7399761;19;2016;-39
2023/02/10 04:43:21;;;;;;;;;;;;;;;18.38;51.17;103188.69;7401019;19;2115;-39
2023/02/10 04:45:49;;;;;;;;;;;;;;;18.55;51.12;103193.25;7400923;19;1765;-39
2023/02/10 04:48:22;;;;;;;;;;;;;;;18.64;50.71;103190.13;7401149;19;1846;-39
2023/02/10 04:50:53;;;;;;;;;;;;;;;18.67;50.49;103192.66;7401699;19;2027;-39
2023/02/10 04:53:21;;;;;;;;;;;;;;;18.67;50.22;103189.09;7400643;19;2184;-39
2023/02/10 04:55:50;;;;;;;;;;;;;;;18.65;50.30;103175.78;7400541;19;1906;-39
2023/02/10 04:58:22;;;;;;;;;;;;;;;18.69;50.47;103206.84;7399664;19;2082;-39
2023/02/10 05:00:55;;;;;;;;;;;;;;;18.67;50.53;103194.47;7397963;19;2059;-39
2023/02/10 05:03:23;;;;;;;;;;;;;;;18.70;50.42;103205.03;7399902;19;2035;-39
2023/02/10 05:05:54;;;;;;;;;;;;;;;18.79;50.49;103203.72;7399137;19;2024;-39
2023/02/10 05:08:23;;;;;;;;;;;;;;;18.78;50.26;103191.25;7332723;19;13885;-39
2023/02/10 05:10:56;;;;;;;;;;;;;;;18.77;50.15;103189.53;7342728;19;12641;-39
2023/02/10 05:13:27;;;;;;;;;;;;;;;18.75;50.43;103184.25;7400496;19;1693;-39
2023/02/10 05:15:55;;;;;;;;;;;;;;;18.75;50.29;103204.81;7399966;19;1692;-39
2023/02/10 05:18:25;;;;;;;;;;;;;;;18.85;49.63;103193.59;7397065;19;1680;-39
2023/02/10 05:20:56;;;;;;;;;;;;;;;19.01;49.35;103195.53;7399315;19;1857;-39
2023/02/10 05:23:25;;;;;;;;;;;;;;;18.95;49.69;103193.16;7400393;19;1797;-39
2023/02/10 05:25:54;;;;;;;;;;;;;;;19.13;49.17;103175.28;7405282;19;1969;-39
2023/02/10 05:28:22;;;;;;;;;;;;;;;19.21;48.94;103205.25;7405373;19;2173;-39
2023/02/10 05:30:51;;;;;;;;;;;;;;;19.20;49.07;103199.03;7404814;19;1691;-39
2023/02/10 05:33:25;;;;;;;;;;;;;;;19.10;48.13;103215.63;7406905;19;1724;-39
2023/02/10 05:35:56;;;;;;;;;;;;;;;19.01;48.03;103223.19;7403780;19;1684;-39
2023/02/10 05:38:29;;;;;;;;;;;;;;;19.10;47.46;103212.97;7404385;19;2098;-39
2023/02/10 05:40:58;;;;;;;;;;;;;;;19.18;47.75;103202.72;7402303;19;1847;-39
2023/02/10 05:43:26;;;;;;;;;;;;;;;19.16;47.57;103205.50;7405610;19;2014;-39
2023/02/10 05:45:54;;;;;;;;;;;;;;;18.92;47.24;103194.19;7402832;19;1760;-38
2023/02/10 05:48:23;;;;;;;;;;;;;;;19.00;47.17;103197.34;7405267;19;2131;-39
2023/02/10 05:50:52;;;;;;;;;;;;;;;19.17;46.84;103227.81;7405536;19;1912;-39
2023/02/10 05:53:23;;;;;;;;;;;;;;;19.12;46.60;103224.47;7406417;19;1843;-39
2023/02/10 05:55:53;;;;;;;;;;;;;;;19.22;47.09;103209.69;7405339;19;1893;-39
2023/02/10 05:58:22;;;;;;;;;;;;;;;19.34;47.10;103230.53;7406546;19;1828;-39
2023/02/10 06:00:50;;;;;;;;;;;;;;;19.39;47.21;103216.84;7403146;19;1909;-39
2023/02/10 06:03:26;;;;;;;;;;;;;;;19.44;47.28;103226.41;7404339;19;1926;-39
2023/02/10 06:05:58;;;;;;;;;;;;;;;19.56;47.31;103210.63;7406966;19;1187;-39
2023/02/10 06:08:30;;;;;;;;;;;;;;;19.60;47.72;103212.22;7406479;19;2080;-39
2023/02/10 06:10:58;;;;;;;;;;;;;;;19.61;48.15;103232.72;7404577;19;2137;-39
2023/02/10 06:13:27;;;;;;;;;;;;;;;19.69;48.62;103241.25;7405691;19;2492;-39
2023/02/10 06:15:56;;;;;;;;;;;;;;;19.62;48.81;103239.84;7402679;19;1739;-38
2023/02/10 06:18:25;;;;;;;;;;;;;;;19.57;49.20;103234.69;7402740;19;1738;-39
2023/02/10 06:20:58;;;;;;;;;;;;;;;19.66;49.24;103246.78;7400129;19;1946;-39
2023/02/10 06:23:27;;;;;;;;;;;;;;;19.68;49.19;103243.06;7400635;19;2138;-39
2023/02/10 06:25:58;;;;;;;;;;;;;;;19.71;48.83;103252.81;7402581;19;1818;-39
2023/02/10 06:28:30;;;;;;;;;;;;;;;19.81;48.96;103242.44;7401437;19;1876;-39
2023/02/10 06:31:03;;;;;;;;;;;;;;;19.80;48.48;103240.72;7402880;19;1728;-39
2023/02/10 06:33:33;;;;;;;;;;;;;;;19.84;48.21;103242.31;7403202;19;1675;-39
2023/02/10 06:36:03;;;;;;;;;;;;;;;19.90;48.04;103241.13;7401265;19;1816;-39
2023/02/10 06:38:32;;;;;;;;;;;;;;;19.94;48.09;103242.69;7402682;19;1742;-40
2023/02/10 06:41:03;;;;;;;;;;;;;;;19.99;48.34;103236.09;7398576;19;1857;-39
2023/02/10 06:43:31;;;;;;;;;;;;;;;19.98;48.08;103245.13;7403611;19;1889;-39
2023/02/10 06:46:00;;;;;;;;;;;;;;;20.01;48.14;103241.41;7404011;19;1709;-39
2023/02/10 06:48:28;;;;;;;;;;;;;;;19.96;48.29;103230.06;7404705;19;2165;-40
2023/02/10 06:50:57;;;;;;;;;;;;;;;19.99;48.39;103241.47;7403916;19;2024;-40
2023/02/10 06:53:25;;;;;;;;;;;;;;;20.02;48.62;103259.25;7404015;19;1795;-39
2023/02/10 06:56:00;;;;;;;;;;;;;;;20.00;48.40;103237.00;7402832;19;1983;-40
2023/02/10 06:58:33;;;;;;;;;;;;;;;20.08;48.15;103236.59;7405039;19;1585;-39
2023/02/10 07:01:04;;;;;;;;;;;;;;;20.12;48.68;103230.94;7398109;19;1972;-40
2023/02/10 07:03:36;;;;;;;;;;;;;;;20.15;48.47;103217.34;7389341;19;2189;-39
2023/02/10 07:06:08;;;;;;;;;;;;;;;20.01;48.74;103228.81;7398790;19;1901;-40
2023/02/10 07:08:45;;;;;;;;;;;;;;;19.85;49.02;103246.72;7399558;19;1654;-39
2023/02/10 07:11:16;;;;;;;;;;;;;;;19.60;49.43;103239.06;7397486;19;1515;-39
2023/02/10 07:13:52;;;;;;;;;;;;;;;19.12;50.52;103225.38;7399842;19;2134;-39
2023/02/10 07:16:23;;;;;;;;;;;;;;;18.98;50.44;103236.78;7398764;19;2146;-39
2023/02/10 07:18:54;;;;;;;;;;;;;;;19.24;50.17;103242.66;7399008;19;2175;-37
2023/02/10 07:21:28;;;;;;;;;;;;;;;19.38;49.71;103242.84;7398440;19;1889;-38
2023/02/10 07:24:02;;;;;;;;;;;;;;;19.63;49.23;103238.88;7402510;19;2043;-38
2023/02/10 07:26:35;;;;;;;;;;;;;;;19.76;49.09;103248.06;7399237;19;2067;-38
2023/02/10 07:29:10;;;;;;;;;;;;;;;19.63;49.15;103236.19;7401777;19;1831;-38
2023/02/10 07:31:40;;;;;;;;;;;;;;;19.53;49.54;103232.25;7400436;19;1945;-38
2023/02/10 07:34:12;;;;;;;;;;;;;;;18.88;50.56;103240.84;7399301;19;1693;-38
2023/02/10 07:36:53;;;;;;;;;;;;;;;18.28;51.80;103241.84;7398689;19;1804;-38
2023/02/10 07:39:28;;;;;;;;;;;;;;;17.86;52.72;103242.78;7398608;19;1572;-38
2023/02/10 07:41:59;;;;;;;;;;;;;;;17.78;53.11;103242.22;7398807;19;2057;-38
2023/02/10 07:44:30;;;;;;;;;;;;;;;18.37;52.05;103223.59;7400626;19;1854;-38
2023/02/10 07:47:00;;;;;;;;;;;;;;;18.94;50.91;103219.09;7399122;19;1766;-38
2023/02/10 07:49:29;;;;;;;;;;;;;;;19.41;49.44;103218.50;7398940;19;1697;-38
2023/02/10 07:52:00;;;;;;;;;;;;;;;19.72;49.17;103222.34;7400518;19;1693;-38
2023/02/10 07:54:32;;;;;;;;;;;;;;;19.81;48.96;103210.22;7401316;19;1586;-38
2023/02/10 07:57:00;;;;;;;;;;;;;;;19.78;49.00;103218.47;7399640;19;1887;-38
2023/02/10 07:59:35;;;;;;;;;;;;;;;19.72;49.20;103214.28;7400951;19;1841;-38
2023/02/10 08:02:06;;;;;;;;;;;;;;;19.39;49.60;103219.53;7398257;19;1847;-38
2023/02/10 08:04:35;;;;;;;;;;;;;;;18.95;50.77;103211.91;7399856;19;1872;-38
2023/02/10 08:07:03;;;;;;;;;;;;;;;18.85;51.05;103222.22;7400021;19;1840;-38
2023/02/10 08:09:32;;;;;;;;;;;;;;;18.90;50.66;103217.50;7399711;19;1675;-38
2023/02/10 08:12:03;;;;;;;;;;;;;;;19.04;50.47;103224.88;7398990;19;1762;-38
2023/02/10 08:14:39;;;;;;;;;;;;;;;19.21;50.13;103210.63;7400440;19;1437;-38
2023/02/10 08:17:11;;;;;;;;;;;;;;;19.47;50.00;103220.88;7399220;19;1728;-37
2023/02/10 08:19:42;;;;;;;;;;;;;;;19.52;49.99;103211.72;7400397;19;1946;-37
2023/02/10 08:22:13;;;;;;;;;;;;;;;19.69;49.53;103211.72;7397725;19;1844;-38
2023/02/10 08:24:43;;;;;;;;;;;;;;;19.76;49.58;103204.25;7399786;19;1972;-38
2023/02/10 08:27:11;;;;;;;;;;;;;;;19.80;49.52;103209.38;7400441;19;2977;-38
2023/02/10 08:29:45;;;;;;;;;;;;;;;19.43;50.05;103213.94;7398541;19;2145;-38
2023/02/10 08:32:18;;;;;;;;;;;;;;;19.18;50.89;103226.84;7398691;19;1831;-38
2023/02/10 08:34:52;;;;;;;;;;;;;;;19.28;50.55;103202.19;7400137;19;1688;-38
2023/02/10 08:37:23;;;;;;;;;;;;;;;19.36;50.51;103204.47;7399939;19;2055;-38
2023/02/10 08:39:52;;;;;;;;;;;;;;;19.50;50.11;103203.78;7398478;19;1944;-38
2023/02/10 08:42:31;;;;;;;;;;;;;;;19.58;50.21;103211.44;7398148;19;1856;-38
2023/02/10 08:45:05;;;;;;;;;;;;;;;19.82;49.78;103215.53;7399532;19;1649;-38
2023/02/10 08:47:39;;;;;;;;;;;;;;;19.95;49.82;103226.47;7389507;19;1740;-38
2023/02/10 08:50:08;;;;;;;;;;;;;;;19.83;50.29;103221.75;7396633;19;3034;-38
2023/02/10 08:52:38;;;;;;;;;;;;;;;19.55;51.22;103216.94;7399075;19;1798;-38
2023/02/10 08:55:12;;;;;;;;;;;;;;;19.25;51.92;103214.88;7399436;19;1747;-38
2023/02/10 08:57:42;;;;;;;;;;;;;;;19.24;51.27;103202.44;7399269;19;2029;-38
2023/02/10 09:00:14;;;;;;;;;;;;;;;19.18;51.70;103216.13;7395614;19;1850;-38
2023/02/10 09:02:50;;;;;;;;;;;;;;;19.46;51.46;103197.69;7397833;19;2103;-38
2023/02/10 09:05:22;;;;;;;;;;;;;;;19.64;51.59;103208.41;7398679;19;1548;-38
2023/02/10 09:07:56;;;;;;;;;;;;;;;19.86;51.47;103203.66;7400285;19;2018;-38
2023/02/10 09:10:25;;;;;;;;;;;;;;;19.95;51.61;103204.13;6877112;19;10000221;-40
2023/02/10 09:12:53;;;;;;;;;;;;;;;19.81;52.20;103213.78;7396714;19;1748;-40
2023/02/10 09:15:24;;;;;;;;;;;;;;;19.61;52.25;103198.69;7396986;19;1837;-40
2023/02/10 09:17:53;;;;;;;;;;;;;;;19.50;52.61;103198.41;7395960;19;2197;-40
2023/02/10 09:20:21;;;;;;;;;;;;;;;19.47;52.66;103206.59;7397118;19;1880;-40
2023/02/10 09:22:52;;;;;;;;;;;;;;;19.59;52.40;103207.78;7398271;19;1862;-40
2023/02/10 09:25:27;;;;;;;;;;;;;;;19.78;52.13;103213.09;7398696;19;1898;-40
2023/02/10 09:27:57;;;;;;;;;;;;;;;19.92;51.94;103201.63;7397227;19;2055;-40
2023/02/10 09:30:29;;;;;;;;;;;;;;;20.05;51.89;103202.69;7397409;19;1826;-40
2023/02/10 09:32:57;;;;;;;;;;;;;;;20.10;51.38;103199.75;7398036;19;1888;-40
2023/02/10 09:35:26;;;;;;;;;;;;;;;19.88;51.87;103192.84;7397545;19;2195;-40
2023/02/10 09:37:54;;;;;;;;;;;;;;;19.78;51.88;103189.78;7398370;19;1963;-41
2023/02/10 09:40:25;;;;;;;;;;;;;;;19.71;51.99;103190.16;7397840;19;2137;-41
2023/02/10 09:43:00;;;;;;;;;;;;;;;19.68;52.15;103177.78;7397978;19;2010;-41
2023/02/10 09:45:35;;;;;;;;;;;;;;;19.58;52.05;103184.59;7397556;19;2027;-41
2023/02/10 09:48:09;;;;;;;;;;;;;;;19.46;52.66;103170.84;7396969;19;1729;-41
2023/02/10 09:50:42;;;;;;;;;;;;;;;19.56;52.21;103195.41;7397282;19;2026;-41
2023/02/10 09:53:14;;;;;;;;;;;;;;;19.67;51.97;103166.16;7397056;19;2073;-41
2023/02/10 09:55:44;;;;;;;;;;;;;;;20.03;51.54;103172.34;7396511;19;1816;-41
2023/02/10 09:58:19;;;;;;;;;;;;;;;20.08;51.14;103164.91;7394533;19;2019;-40
2023/02/10 10:00:52;;;;;;;;;;;;;;;20.04;51.56;103168.72;7395555;19;1942;-40
2023/02/10 10:03:22;;;;;;;;;;;;;;;19.93;51.92;103155.88;7392871;19;1944;-40
2023/02/10 10:05:57;;;;;;;;;;;;;;;19.86;51.69;103160.72;7397760;19;1751;-40
2023/02/10 10:08:32;;;;;;;;;;;;;;;19.78;51.91;103156.72;7398131;19;1811;-40
2023/02/10 10:11:04;;;;;;;;;;;;;;;19.80;52.01;103157.50;7399175;19;1989;-40
2023/02/10 10:13:33;;;;;;;;;;;;;;;19.77;52.24;103145.09;7404174;19;1984;-41
2023/02/10 10:16:12;;;;;;;;;;;;;;;19.77;52.26;103145.09;7402911;19;2011;-40
2023/02/10 10:18:48;;;;;;;;;;;;;;;19.79;52.32;103147.69;7403450;19;2122;-41
2023/02/10 10:21:22;;;;;;;;;;;;;;;19.77;52.13;103153.13;7403878;19;2052;-40
2023/02/10 10:23:58;;;;;;;;;;;;;;;19.78;52.08;103148.66;7403953;19;2043;-40
2023/02/10 10:26:38;;;;;;;;;;;;;;;19.71;52.23;103137.38;7403422;19;2094;-41
2023/02/10 10:29:15;;;;;;;;;;;;;;;19.70;52.37;103127.56;7402905;19;1758;-38
2023/02/10 10:31:53;;;;;;;;;;;;;;;19.71;52.48;103123.94;7401799;19;1981;-38
2023/02/10 10:34:25;;;;;;;;;;;;;;;19.75;52.29;103124.66;7401490;19;1759;-38
2023/02/10 10:36:58;;;;;;;;;;;;;;;19.68;52.01;103122.25;7404208;19;2019;-37
2023/02/10 10:39:36;;;;;;;;;;;;;;;19.60;52.44;103131.69;7403063;19;2167;-38
2023/02/10 10:42:07;;;;;;;;;;;;;;;19.60;52.46;103126.31;7401614;19;2097;-38
2023/02/10 10:44:36;;;;;;;;;;;;;;;19.70;52.30;103119.50;7402726;19;1774;-38
2023/02/10 10:47:13;;;;;;;;;;;;;;;19.70;52.09;103116.81;7403730;19;1870;-38
2023/02/10 10:49:46;;;;;;;;;;;;;;;19.74;52.02;103101.47;7402412;19;2017;-38
2023/02/10 10:52:31;;;;;;;;;;;;;;;19.84;51.93;103116.97;7403064;19;1654;-38
2023/02/10 10:55:10;;;;;;;;;;;;;;;20.14;51.37;103105.47;7401946;19;2028;-38
2023/02/10 10:57:43;;;;;;;;;;;;;;;20.08;51.33;103116.56;7402548;19;1972;-38
2023/02/10 11:00:20;;;;;;;;;;;;;;;19.93;51.95;103107.53;7402670;19;1863;-38
2023/02/10 11:03:02;;;;;;;;;;;;;;;19.82;52.23;103093.84;7400443;19;1853;-38
2023/02/10 11:05:32;;;;;;;;;;;;;;;19.74;52.33;103088.03;7403794;19;2033;-38
2023/02/10 11:08:08;;;;;;;;;;;;;;;19.68;52.47;103079.31;7403603;19;1843;-38
2023/02/10 11:10:41;;;;;;;;;;;;;;;19.73;52.43;103100.56;7402813;19;2065;-38
2023/02/10 11:13:19;;;;;;;;;;;;;;;19.68;52.39;103102.63;7402305;19;2035;-38
2023/02/10 11:15:49;;;;;;;;;;;;;;;19.64;52.47;103074.22;7402315;19;1616;-38
2023/02/10 11:18:24;;;;;;;;;;;;;;;19.63;52.37;103075.16;7401489;19;2109;-38
2023/02/10 11:21:02;;;;;;;;;;;;;;;19.60;52.42;103067.28;7400401;19;1859;-38
2023/02/10 11:23:31;;;;;;;;;;;;;;;19.58;52.76;103066.50;7398589;19;1714;-38
2023/02/10 11:26:06;;;;;;;;;;;;;;;19.68;52.48;103062.34;7402179;19;2066;-38
2023/02/10 11:28:37;;;;;;;;;;;;;;;19.63;52.71;103054.53;7398197;19;1694;-40
2023/02/10 11:31:10;;;;;;;;;;;;;;;19.65;52.66;103065.19;7397808;19;2064;-40
2023/02/10 11:33:41;;;;;;;;;;;;;;;19.60;52.91;103062.75;7399983;19;1819;-40
2023/02/10 11:36:11;;;;;;;;;;;;;;;19.67;52.80;103055.22;7402276;19;1820;-40
2023/02/10 11:38:42;;;;;;;;;;;;;;;19.75;52.50;103044.13;7402574;19;2100;-40
2023/02/10 11:41:13;;;;;;;;;;;;;;;19.75;52.50;103042.28;7399445;19;1842;-40
2023/02/10 11:43:44;;;;;;;;;;;;;;;19.74;52.39;103059.38;7400787;19;1925;-40
2023/02/10 11:46:22;;;;;;;;;;;;;;;19.68;52.32;103027.47;7401862;19;1997;-40
2023/02/10 11:49:06;;;;;;;;;;;;;;;19.74;52.39;103032.50;7401056;19;1793;-40
2023/02/10 11:51:34;;;;;;;;;;;;;;;19.79;52.31;103046.53;7400419;19;1813;-40
2023/02/10 11:54:02;;;;;;;;;;;;;;;19.76;52.63;103025.25;7401178;19;1627;-40
2023/02/10 11:59:25;;;;;;;;;;;;;;;19.80;52.43;103026.81;7400851;19;1897;-38
2023/02/10 12:02:00;;;;;;;;;;;;;;;19.80;52.18;103020.56;7383938;19;2133;-38
2023/02/10 12:04:47;;;;;;;;;;;;;;;19.77;52.41;103024.28;7397914;19;1950;-38
2023/02/10 12:07:26;;;;;;;;;;;;;;;19.75;52.13;103014.59;7397479;19;1816;-38
2023/02/10 12:10:01;;;;;;;;;;;;;;;19.67;52.55;103004.22;7396966;19;1842;-38
2023/02/10 12:12:42;;;;;;;;;;;;;;;19.71;52.28;103010.31;7395898;19;1826;-38
2023/02/10 12:15:21;;;;;;;;;;;;;;;19.69;52.36;102994.28;7398239;19;1740;-38
2023/02/10 12:17:58;;;;;;;;;;;;;;;19.66;52.60;102998.00;7395902;19;1840;-38
2023/02/10 12:20:46;;;;;;;;;;;;;;;19.68;52.50;103001.47;7397690;19;1803;-38
2023/02/10 12:23:38;;;;;;;;;;;;;;;19.65;52.77;102979.28;7396930;19;1959;-38
2023/02/10 12:26:13;;;;;;;;;;;;;;;19.65;52.71;102995.41;7399152;19;1741;-38
2023/02/10 12:28:49;;;;;;;;;;;;;;;19.63;52.90;103003.53;7398783;19;1798;-38
2023/02/10 12:31:22;;;;;;;;;;;;;;;19.54;52.67;102985.28;7399808;19;1775;-38
2023/02/10 12:34:04;;;;;;;;;;;;;;;19.77;52.33;102980.47;7396694;19;1874;-38
2023/02/10 12:36:40;;;;;;;;;;;;;;;19.99;52.13;102993.53;7398205;19;1777;-38
2023/02/10 12:39:16;;;;;;;;;;;;;;;19.93;51.89;102975.94;7396725;19;1866;-38
2023/02/10 12:41:49;;;;;;;;;;;;;;;19.85;52.48;102992.47;7398499;19;2160;-38
2023/02/10 12:44:29;;;;;;;;;;;;;;;19.75;52.49;102972.47;7398746;19;1754;-38
2023/02/10 12:47:05;;;;;;;;;;;;;;;19.67;52.87;102988.13;7398686;19;1945;-38
2023/02/10 12:49:42;;;;;;;;;;;;;;;19.56;53.09;102975.31;7397662;19;1748;-38
2023/02/10 12:52:14;;;;;;;;;;;;;;;19.60;53.07;102976.03;7398398;19;1808;-38
2023/02/10 12:54:48;;;;;;;;;;;;;;;19.63;52.74;102968.63;7396639;19;1861;-38
2023/02/10 12:57:20;;;;;;;;;;;;;;;19.61;52.94;102983.09;7397962;19;1797;-38
2023/02/10 12:59:55;;;;;;;;;;;;;;;19.71;52.97;102968.25;7397591;19;1796;-38
2023/02/10 13:02:32;;;;;;;;;;;;;;;19.67;52.63;102974.72;7396096;19;2362;-38
2023/02/10 13:05:04;;;;;;;;;;;;;;;19.65;52.57;102984.66;7398550;19;2134;-38
2023/02/10 13:07:39;;;;;;;;;;;;;;;19.63;52.64;102989.25;7398658;19;1932;-38
2023/02/10 13:10:20;;;;;;;;;;;;;;;19.61;52.58;102985.78;7398584;19;1856;-38
2023/02/10 13:12:50;;;;;;;;;;;;;;;19.57;52.97;102979.72;7397972;19;2069;-38
2023/02/10 13:15:23;;;;;;;;;;;;;;;19.58;53.06;102969.88;7397646;19;1673;-38